Terminal Aerodrome Forecast
Issued by NWS

Home | Current Version | Previous Version | Text Only | Print | Product List | Glossary On
Versions: 1 2 3 4 5 6 7 8 9 10 11 12
645
FTUS45 KVEF 200520
TAFHND
TAF
KHND 200520Z 2006/2106 19010KT P6SM SKC
     FM201400 VRB06KT P6SM SKC
     FM202000 19011KT P6SM SKC
     FM202200 21016G23KT P6SM SKC=

USA.gov is the U.S. government's official web portal to all federal, state and local government web resources and services.